Creadmore, NC

12:58 PM EDT on April 26, 2017 (GMT -0400)
Creedmor (WD4LSS) | | Change Station
Active Advisory: Flood Warning Active Notice: Public Information Statement

Elev 770 ft 35.99 °N, 80.31 °W | Updated 13 minutes ago

Partly Cloudy
Partly Cloudy
73.4 °F
Feels Like 73.4 °F
N
1.0
Wind Variable Wind from WSW
Gusts 7.0 mph

Today
High -- | Low -- °F
--% Chance of Precip.
Yesterday
High -- | Low -- °F
Precip. -- in
Pressure 29.81 in
Visibility 10.0 miles
Clouds Few 2500 ft
Dew Point Not available.
Humidity Not available.
Rainfall 0.00 in
Snow Depth Not available.
6:34 AM 8:04 PM
New Moon, 0% visible
METAR KINT 261654Z 22007KT 190V250 10SM FEW025 23/14 A2983 RMK AO2 SLP093 T02280144
Pressure 29.81 in
Visibility 10.0 miles
Clouds Few 2500 ft
Dew Point Not available.
Humidity Not available.
Rainfall 0.00 in
Snow Depth Not available.
6:34 AM 8:04 PM
New Moon, 0% visible
METAR KINT 261654Z 22007KT 190V250 10SM FEW025 23/14 A2983 RMK AO2 SLP093 T02280144

Get Your Daily Forecast Email!

Thanks for signing up!

Be on the lookout for a verification email in your inbox.

You'll start receiving severe weather alerts in your inbox..

×

10-Day Weather Forecast

Almanac

Astronomy

Apr. 26, 2017 Rise Set
Actual Time
Civil Twilight
Nautical Twilight
Astronomical Twilight
Moon
Length of Visible Light
Length of Day
Tomorrow will be .
, % of the Moon is Illuminated

Today's Extremes

State Highs State Lows

Community

WunderPhotos

WunderBlog® & News

Nearby

Air Quality

  Air Quality AQ Index Pollutant
Not available.

Snow Depth

Station Depth Elevation

Earthquake Activity

City Distance Mag. Time & Date
Minimum magnitude displayed is 2.5.

Coastal Water Temperatures

Place Temperature

Stations

Nearby Weather Stations

Station Location Temp. Windchill Dew Point Humidity Wind Precip. Elev Updated Type
                   

Watches & Warnings

Flood Warning
Issued: 10:29 AM EDT Apr. 26, 2017 – National Weather Service

The Flood Warning continues for the Yadkin River at Yadkin College.
* At 10:00 am Wednesday the stage was 21.8 feet.
* Minor flood stage is 18.0 feet and minor flooding is forecast.
* The river will continue to fall to below flood stage by this
evening.
* Impact... at 21.0 feet, lower level primitive campsites at the
thousand trails preserve off us64 will still be flooded.
Between 18 and 21 feet, farmlands on both banks will be flooded.


The following are the latest observations and 7 am forecast stages
for the next several days.

                 Fld observed forecast 7 am
location stg stg day time Thu Fri Sat sun Mon

Yadkin River
Yadkin College 18 21.8 Wed 10 am 11.0 6.3 5.8 5.6 4.9


Lat... Lon 3597 8031 3577 8040 3574 8036 3568 8046
          3575 8054 3598 8045